Time;durP1;ratioP1;P1;durP2;ratioP2;P2;SDS_P1;SDS_P2;PMS_P1;PMS_P2;Temp;Humidity;BMP_temperature;BMP_pressure;BME280_temperature;BME280_humidity;BME280_pressure;Samples;Min_cycle;Max_cycle;Signal;HPM_P1;HPM_P2
2024/01/10 00:00:04;;;;;;;13.83;9.13;;;-0.60;89.10;;;0.89;60.37;103454.28;3082257;46;20438;-66
2024/01/10 00:02:33;;;;;;;13.20;8.83;;;-0.60;88.50;;;0.87;60.50;103456.09;3082064;46;21048;-64
2024/01/10 00:05:01;;;;;;;15.07;9.63;;;-0.60;88.80;;;0.86;60.77;103449.19;3081965;46;21029;-66
2024/01/10 00:07:30;;;;;;;14.10;8.50;;;-0.60;88.80;;;0.85;60.42;103452.69;3081655;46;21006;-66
2024/01/10 00:10:00;;;;;;;15.00;8.87;;;-0.60;88.50;;;0.81;60.52;103443.28;3081233;46;20438;-66
2024/01/10 00:12:34;;;;;;;12.57;9.00;;;-0.60;88.70;;;0.82;60.77;103449.31;3081838;46;20438;-66
2024/01/10 00:15:04;;;;;;;12.87;9.70;;;-0.70;88.90;;;0.82;60.69;103445.00;3082016;46;20458;-66
2024/01/10 00:17:33;;;;;;;11.47;8.03;;;-0.60;88.80;;;0.83;60.53;103440.66;3081626;46;20534;-66
2024/01/10 00:20:02;;;;;;;13.27;9.10;;;-0.60;88.50;;;0.82;60.71;103439.81;3081955;46;20446;-68
2024/01/10 00:22:30;;;;;;;15.13;9.87;;;-0.60;89.00;;;0.84;60.77;103442.34;3082107;46;20525;-66
2024/01/10 00:24:58;;;;;;;13.83;9.80;;;-0.60;89.00;;;0.84;60.34;103427.66;3082103;46;20462;-64
2024/01/10 00:27:27;;;;;;;13.77;8.60;;;-0.70;88.70;;;0.83;60.50;103425.97;3081521;46;20544;-65
2024/01/10 00:29:56;;;;;;;13.13;9.07;;;-0.60;88.70;;;0.84;60.14;103417.28;3081758;46;20474;-66
2024/01/10 00:32:25;;;;;;;13.40;8.90;;;-0.60;88.50;;;0.83;60.29;103414.75;3081871;46;20496;-66
2024/01/10 00:34:53;;;;;;;14.10;9.40;;;-0.70;88.40;;;0.81;60.34;103412.19;3081160;46;20437;-66
2024/01/10 00:37:22;;;;;;;11.70;8.50;;;-0.70;88.20;;;0.80;60.46;103407.91;3081591;46;20466;-65
2024/01/10 00:39:50;;;;;;;12.60;8.47;;;-0.70;88.70;;;0.79;60.47;103398.44;3082093;46;20500;-66
2024/01/10 00:42:19;;;;;;;14.63;9.37;;;-0.70;88.40;;;0.78;60.58;103407.13;3081575;46;20435;-65
2024/01/10 00:44:47;;;;;;;12.73;8.73;;;-0.70;88.70;;;0.80;60.41;103404.47;3081674;46;20571;-66
2024/01/10 00:47:15;;;;;;;16.13;10.07;;;-0.70;88.60;;;0.81;60.89;103401.81;3081344;46;20467;-67
2024/01/10 00:49:44;;;;;;;11.53;9.37;;;-0.60;89.10;;;0.88;60.77;103392.97;3081374;46;20454;-66
2024/01/10 00:52:13;;;;;;;12.63;9.00;;;-0.60;88.90;;;0.95;60.51;103397.06;3081587;46;20575;-66
2024/01/10 00:54:41;;;;;;;14.93;9.90;;;-0.60;88.40;;;0.98;60.39;103389.19;3081857;46;20564;-66
2024/01/10 00:57:10;;;;;;;13.27;9.73;;;-0.50;88.40;;;1.01;60.03;103389.13;3080918;46;21077;-64
2024/01/10 00:59:38;;;;;;;13.00;9.53;;;-0.50;87.90;;;1.01;59.90;103386.53;3081523;46;21067;-67
2024/01/10 01:02:07;;;;;;;16.67;9.93;;;-0.40;87.70;;;1.01;59.94;103383.94;3080185;46;20438;-66
2024/01/10 01:04:35;;;;;;;14.23;9.97;;;-0.50;87.90;;;1.03;60.22;103384.72;3081792;46;20457;-66
2024/01/10 01:07:04;;;;;;;15.50;9.83;;;-0.40;88.10;;;1.05;59.79;103380.34;3081096;46;20453;-66
2024/01/10 01:09:33;;;;;;;12.20;9.67;;;-0.40;87.60;;;1.03;59.78;103382.13;3080652;46;20466;-66
2024/01/10 01:12:02;;;;;;;13.73;10.03;;;-0.40;87.60;;;1.04;59.97;103383.84;3081635;46;20431;-63
2024/01/10 01:14:30;;;;;;;15.07;9.57;;;-0.40;87.50;;;1.06;59.88;103376.88;3081546;46;20447;-66
2024/01/10 01:16:59;;;;;;;14.47;9.13;;;-0.40;87.60;;;1.08;59.50;103382.84;3080855;46;20566;-66
2024/01/10 01:19:27;;;;;;;16.17;10.57;;;-0.40;86.90;;;1.05;59.25;103389.84;3081185;46;20452;-63
2024/01/10 01:21:55;;;;;;;16.73;9.77;;;-0.40;86.60;;;1.00;59.26;103392.59;3081341;46;20446;-64
2024/01/10 01:24:24;;;;;;;13.53;9.47;;;-0.50;86.60;;;0.93;59.45;103391.09;3081289;46;20522;-66
2024/01/10 01:26:52;;;;;;;14.43;10.17;;;-0.50;86.60;;;0.87;59.60;103391.28;3080714;46;20991;-67
2024/01/10 01:29:21;;;;;;;13.40;8.87;;;-0.60;86.90;;;0.83;59.70;103400.06;3081513;46;20462;-66
2024/01/10 01:31:50;;;;;;;13.93;10.03;;;-0.60;87.50;;;0.81;59.81;103401.81;3081221;46;20524;-66
2024/01/10 01:34:18;;;;;;;15.23;10.13;;;-0.60;88.00;;;0.82;60.04;103400.94;3081026;46;20504;-66
2024/01/10 01:36:48;;;;;;;16.80;10.80;;;-0.60;88.10;;;0.81;60.02;103396.63;3080924;46;20439;-66
2024/01/10 01:39:16;;;;;;;12.57;10.27;;;-0.60;87.90;;;0.81;60.15;103395.81;3081719;46;20496;-66
2024/01/10 01:41:44;;;;;;;13.70;10.20;;;-0.60;88.30;;;0.81;60.33;103401.00;3080910;46;20514;-66
2024/01/10 01:44:13;;;;;;;15.27;9.97;;;-0.70;88.10;;;0.81;60.25;103394.06;3080977;46;20451;-66
2024/01/10 01:46:41;;;;;;;17.53;11.20;;;-0.60;88.20;;;0.85;60.39;103398.25;3080918;46;21001;-64
2024/01/10 01:49:11;;;;;;;15.13;10.43;;;-0.60;88.30;;;0.87;60.08;103396.47;3080779;46;20438;-66
2024/01/10 01:51:40;;;;;;;13.37;9.77;;;-0.60;88.00;;;0.86;59.71;103399.94;3080876;46;20446;-66
2024/01/10 01:54:09;;;;;;;17.63;10.70;;;-0.60;87.60;;;0.84;59.98;103404.34;3081453;46;20434;-66
2024/01/10 01:56:40;;;;;;;14.03;9.93;;;-0.60;87.80;;;0.82;60.09;103400.94;3080554;46;20502;-66
2024/01/10 01:59:08;;;;;;;13.97;9.87;;;-0.60;87.80;;;0.83;60.14;103409.56;3080280;46;20435;-66
2024/01/10 02:01:37;;;;;;;14.10;10.00;;;-0.70;88.00;;;0.83;60.02;103402.66;3081031;46;20519;-66
2024/01/10 02:04:05;;;;;;;14.53;9.70;;;-0.60;88.00;;;0.83;59.93;103402.66;3080887;46;20971;-65
2024/01/10 02:06:34;;;;;;;15.37;10.03;;;-0.60;87.90;;;0.82;60.17;103398.34;3080319;46;20571;-66
2024/01/10 02:09:03;;;;;;;13.77;9.93;;;-0.60;88.00;;;0.82;60.09;103398.34;3079719;46;20452;-66
2024/01/10 02:11:32;;;;;;;14.57;9.73;;;-0.60;87.80;;;0.80;59.83;103399.28;3080856;46;20434;-66
2024/01/10 02:14:00;;;;;;;15.30;10.33;;;-0.70;87.60;;;0.77;59.97;103395.03;3081187;46;20437;-66
2024/01/10 02:16:29;;;;;;;13.20;10.00;;;-0.70;87.70;;;0.74;59.91;103389.94;3083121;46;21006;-66
2024/01/10 02:18:57;;;;;;;14.80;10.40;;;-0.70;87.60;;;0.71;59.94;103395.25;3082215;46;20487;-66
2024/01/10 02:21:26;;;;;;;16.17;10.57;;;-0.80;87.60;;;0.72;60.21;103390.88;3083324;46;20470;-66
2024/01/10 02:23:54;;;;;;;14.30;9.17;;;-0.70;88.00;;;0.75;60.51;103386.47;3082717;46;20998;-66
2024/01/10 02:26:22;;;;;;;14.70;10.17;;;-0.70;88.10;;;0.77;60.05;103387.28;3083065;46;20464;-66
2024/01/10 02:28:51;;;;;;;15.40;11.03;;;-0.70;87.70;;;0.76;59.95;103388.19;3082795;46;20530;-66
2024/01/10 02:31:19;;;;;;;14.43;9.53;;;-0.70;87.80;;;0.76;59.78;103388.19;3083023;46;20438;-66
2024/01/10 02:33:47;;;;;;;13.57;10.07;;;-0.70;87.60;;;0.76;59.67;103384.75;3083118;46;20440;-66
2024/01/10 02:36:16;;;;;;;14.07;9.67;;;-0.70;87.30;;;0.73;60.03;103383.09;3083270;46;20432;-66
2024/01/10 02:38:44;;;;;;;15.13;10.57;;;-0.70;87.90;;;0.73;59.77;103383.09;3081632;46;20593;-66
2024/01/10 02:41:13;;;;;;;16.63;11.10;;;-0.70;87.50;;;0.69;59.56;103382.31;3083036;46;20437;-65
2024/01/10 02:43:41;;;;;;;13.80;10.07;;;-0.80;87.00;;;0.65;59.67;103379.88;3082026;46;20462;-66
2024/01/10 02:46:09;;;;;;;13.80;9.57;;;-0.80;87.30;;;0.61;60.11;103378.25;3083036;46;20529;-66
2024/01/10 02:48:38;;;;;;;14.73;10.57;;;-0.80;87.70;;;0.59;60.10;103374.88;3082031;46;20478;-66
2024/01/10 02:51:06;;;;;;;15.33;10.67;;;-0.90;88.00;;;0.58;60.02;103376.59;3082313;46;20503;-66
2024/01/10 02:53:35;;;;;;;13.77;10.17;;;-0.90;87.70;;;0.55;60.33;103378.44;3082599;46;20447;-65
2024/01/10 02:56:03;;;;;;;13.97;10.43;;;-0.90;87.90;;;0.57;60.23;103379.25;3081871;46;20927;-66
2024/01/10 02:58:32;;;;;;;14.23;10.43;;;-0.90;88.20;;;0.56;60.12;103382.72;3082024;46;20462;-66
2024/01/10 03:01:01;;;;;;;12.57;9.53;;;-0.90;88.00;;;0.55;60.31;103368.06;3082733;46;20435;-65
2024/01/10 03:03:29;;;;;;;15.87;10.10;;;-0.90;88.20;;;0.54;60.18;103372.44;3082708;46;20438;-66
2024/01/10 03:05:58;;;;;;;13.30;10.07;;;-0.90;88.20;;;0.52;60.39;103378.53;3082891;46;20513;-66
2024/01/10 03:08:26;;;;;;;14.30;9.73;;;-0.90;88.00;;;0.47;60.15;103367.47;3082118;46;20590;-66
2024/01/10 03:10:54;;;;;;;13.87;10.60;;;-1.00;88.10;;;0.46;60.65;103373.53;3082584;46;21041;-66
2024/01/10 03:13:23;;;;;;;15.40;9.93;;;-1.00;88.80;;;0.48;60.56;103366.56;3082296;46;21025;-65
2024/01/10 03:15:51;;;;;;;14.07;10.50;;;-1.00;88.90;;;0.50;60.62;103370.78;3082675;46;20427;-66
2024/01/10 03:18:20;;;;;;;14.07;10.83;;;-1.00;89.10;;;0.53;60.50;103364.69;3081933;46;20446;-66
2024/01/10 03:20:48;;;;;;;16.03;11.10;;;-1.00;88.40;;;0.52;60.44;103360.41;3082425;46;21019;-66
2024/01/10 03:23:17;;;;;;;12.93;10.50;;;-0.90;88.50;;;0.52;60.59;103365.59;3082323;46;20888;-67
2024/01/10 03:25:45;;;;;;;15.87;10.67;;;-0.90;88.40;;;0.52;60.27;103363.00;3082467;46;21095;-66
2024/01/10 03:28:17;;;;;;;14.27;10.60;;;-1.00;89.00;;;0.51;60.26;103361.28;3081930;46;20518;-66
2024/01/10 03:30:45;;;;;;;15.87;11.03;;;-1.00;88.10;;;0.50;60.43;103354.44;3082252;46;20438;-66
2024/01/10 03:33:15;;;;;;;17.30;11.80;;;-1.00;88.10;;;0.51;60.62;103356.97;3082773;46;20491;-66
2024/01/10 03:35:44;;;;;;;13.10;10.10;;;-1.00;88.40;;;0.54;60.67;103356.03;3082382;46;21225;-66
2024/01/10 03:38:12;;;;;;;13.53;11.00;;;-0.90;88.40;;;0.54;60.22;103345.66;3082052;46;20943;-66
2024/01/10 03:40:41;;;;;;;14.30;10.40;;;-0.90;88.20;;;0.53;60.24;103349.13;3082428;46;20510;-66
2024/01/10 03:43:10;;;;;;;12.00;9.73;;;-1.00;87.90;;;0.52;60.33;103337.09;3082171;46;20434;-66
2024/01/10 03:45:38;;;;;;;14.50;10.60;;;-0.90;88.00;;;0.51;59.96;103343.16;3081969;46;20596;-66
2024/01/10 03:48:07;;;;;;;13.40;9.60;;;-1.00;87.90;;;0.48;60.30;103345.81;3080716;46;20441;-63
2024/01/10 03:50:35;;;;;;;16.90;10.67;;;-1.00;87.80;;;0.44;59.99;103333.88;3081725;46;20434;-65
2024/01/10 03:53:04;;;;;;;15.70;10.83;;;-1.00;87.80;;;0.41;60.10;103344.31;3082220;46;20464;-65
2024/01/10 03:55:32;;;;;;;19.67;12.50;;;-1.00;87.90;;;0.38;59.94;103349.59;3082018;46;20442;-64
2024/01/10 03:58:01;;;;;;;14.77;10.83;;;-1.10;88.00;;;0.37;60.63;103353.06;3081509;46;20494;-66
2024/01/10 04:00:29;;;;;;;14.13;11.00;;;-1.10;88.60;;;0.38;60.69;103355.59;3081990;46;20518;-66
2024/01/10 04:02:58;;;;;;;14.87;11.67;;;-1.10;88.60;;;0.39;60.49;103366.81;3082136;46;20442;-66
2024/01/10 04:05:27;;;;;;;14.30;10.53;;;-1.10;88.50;;;0.38;60.78;103365.16;3082080;46;21030;-66
2024/01/10 04:07:56;;;;;;;14.77;10.83;;;-1.10;88.70;;;0.36;60.62;103347.03;3081519;46;20470;-66
2024/01/10 04:10:25;;;;;;;15.43;11.23;;;-1.10;88.60;;;0.36;60.60;103352.22;3081951;46;20446;-66
2024/01/10 04:12:53;;;;;;;14.33;10.90;;;-1.10;88.60;;;0.35;60.49;103345.38;3081783;46;20509;-66
2024/01/10 04:15:22;;;;;;;15.57;10.67;;;-1.10;88.70;;;0.37;60.63;103338.41;3081679;46;20552;-66
2024/01/10 04:17:50;;;;;;;13.40;10.03;;;-1.10;89.00;;;0.38;60.50;103344.44;3080736;46;20450;-64
2024/01/10 04:20:19;;;;;;;13.83;10.50;;;-1.10;88.50;;;0.37;60.55;103342.72;3081795;46;21043;-65
2024/01/10 04:22:48;;;;;;;14.77;10.07;;;-1.10;88.90;;;0.39;60.58;103346.09;3081745;46;20454;-65
2024/01/10 04:25:16;;;;;;;16.10;10.83;;;-1.10;88.70;;;0.40;60.43;103342.63;3081520;46;20466;-64
2024/01/10 04:27:44;;;;;;;16.03;11.67;;;-1.10;88.50;;;0.41;60.61;103339.13;3081548;46;20450;-63
2024/01/10 04:30:13;;;;;;;17.50;11.30;;;-1.10;88.60;;;0.45;60.70;103338.19;3081971;46;20463;-65
2024/01/10 04:32:42;;;;;;;15.63;10.87;;;-1.00;88.70;;;0.45;60.57;103343.34;3081885;46;20477;-66
2024/01/10 04:35:10;;;;;;;15.20;11.67;;;-1.00;88.60;;;0.47;60.54;103344.16;3081964;46;20463;-66
2024/01/10 04:37:39;;;;;;;14.43;11.70;;;-1.00;88.20;;;0.45;60.13;103345.94;3080546;46;20582;-66
2024/01/10 04:40:08;;;;;;;16.77;10.77;;;-1.10;87.80;;;0.44;60.53;103341.66;3081650;46;20526;-66
2024/01/10 04:42:37;;;;;;;14.43;10.93;;;-1.00;88.00;;;0.41;60.43;103339.13;3081737;46;20434;-66
2024/01/10 04:45:07;;;;;;;17.83;11.37;;;-1.00;88.10;;;0.43;60.41;103337.34;3081581;46;20463;-66
2024/01/10 04:47:35;;;;;;;14.17;11.13;;;-1.00;88.40;;;0.46;60.49;103342.44;3081666;46;20592;-66
2024/01/10 04:50:04;;;;;;;17.73;11.47;;;-1.00;88.10;;;0.46;60.33;103332.94;3081375;46;20459;-66
2024/01/10 04:52:38;;;;;;;17.10;12.03;;;-1.00;87.90;;;0.45;59.99;103335.59;3081643;46;20492;-66
2024/01/10 04:55:07;;;;;;;16.53;11.17;;;-1.00;87.70;;;0.43;59.93;103337.34;3081139;46;20489;-66
2024/01/10 04:57:36;;;;;;;16.70;11.23;;;-1.00;87.30;;;0.39;59.87;103334.00;3081037;46;20588;-66
2024/01/10 05:00:06;;;;;;;16.97;12.30;;;-1.00;87.50;;;0.35;60.08;103328.97;3081850;46;20478;-68
2024/01/10 05:02:35;;;;;;;14.70;11.33;;;-1.10;87.60;;;0.32;59.84;103329.06;3081672;46;21059;-66
2024/01/10 05:05:04;;;;;;;17.13;12.57;;;-1.10;87.30;;;0.28;59.99;103327.44;3081437;46;20490;-66
2024/01/10 05:07:32;;;;;;;15.17;12.23;;;-1.10;87.60;;;0.25;59.96;103332.72;3080865;46;20587;-65
2024/01/10 05:10:00;;;;;;;17.83;12.33;;;-1.20;87.40;;;0.19;59.83;103323.38;3081280;46;20439;-66
2024/01/10 05:12:29;;;;;;;16.77;11.53;;;-1.20;87.50;;;0.17;60.14;103321.75;3081531;46;20434;-66
2024/01/10 05:14:57;;;;;;;16.90;12.10;;;-1.30;87.70;;;0.13;59.99;103325.28;3080806;46;20523;-65
2024/01/10 05:17:25;;;;;;;16.30;11.67;;;-1.30;87.50;;;0.08;60.04;103319.41;3081047;46;20447;-63
2024/01/10 05:19:54;;;;;;;18.90;12.30;;;-1.30;87.70;;;0.05;60.22;103319.50;3080412;46;21016;-66
2024/01/10 05:22:23;;;;;;;14.53;11.73;;;-1.40;87.80;;;0.00;60.40;103320.47;3081137;46;20477;-66
2024/01/10 05:24:51;;;;;;;17.27;12.07;;;-1.40;88.00;;;-0.01;60.43;103323.97;3081226;46;21109;-62
2024/01/10 05:27:19;;;;;;;14.67;11.47;;;-1.40;88.20;;;-0.02;60.31;103319.66;3080789;46;20610;-66
2024/01/10 05:29:48;;;;;;;17.30;11.50;;;-1.50;87.80;;;-0.07;60.50;103324.13;3081337;46;20647;-65
2024/01/10 05:32:16;;;;;;;17.73;12.30;;;-1.50;88.20;;;-0.09;60.41;103318.13;3081135;46;20435;-66
2024/01/10 05:34:45;;;;;;;17.60;12.27;;;-1.50;88.50;;;-0.12;60.39;103318.22;3080735;46;21422;-66
2024/01/10 05:37:13;;;;;;;18.47;13.03;;;-1.60;88.30;;;-0.15;60.74;103318.31;3080763;46;20633;-64
2024/01/10 05:39:42;;;;;;;17.40;11.80;;;-1.60;88.40;;;-0.16;60.60;103319.19;3081221;46;20459;-66
2024/01/10 05:42:11;;;;;;;20.27;12.53;;;-1.60;88.50;;;-0.17;60.61;103320.06;3080956;46;20463;-64
2024/01/10 05:44:40;;;;;;;20.43;12.47;;;-1.60;88.70;;;-0.19;60.56;103321.03;3081362;46;20439;-66
2024/01/10 05:47:08;;;;;;;13.73;10.53;;;-1.70;88.60;;;-0.19;60.94;103321.03;3080402;46;20575;-64
2024/01/10 05:49:36;;;;;;;19.17;12.27;;;-1.60;89.00;;;-0.18;61.38;103320.97;3082932;46;21046;-65
2024/01/10 05:52:05;;;;;;;17.73;11.33;;;-1.60;89.10;;;-0.16;61.01;103321.78;3083376;46;20571;-67
2024/01/10 05:54:33;;;;;;;19.17;13.10;;;-1.60;89.20;;;-0.11;61.05;103325.09;3083681;46;20556;-65
2024/01/10 05:57:02;;;;;;;16.37;11.10;;;-1.60;89.30;;;-0.08;60.83;103319.84;3083002;46;20446;-66
2024/01/10 05:59:30;;;;;;;18.73;12.00;;;-1.60;88.80;;;-0.07;60.90;103323.25;3083252;46;21123;-65
2024/01/10 06:01:59;;;;;;;18.97;11.83;;;-1.50;89.00;;;-0.04;60.85;103320.59;3083256;46;20465;-65
2024/01/10 06:04:30;;;;;;;17.93;12.10;;;-1.50;88.80;;;-0.05;60.74;103313.75;3083195;46;20511;-65
2024/01/10 06:06:59;;;;;;;18.37;11.97;;;-1.50;88.70;;;-0.02;60.72;103308.44;3082681;46;20997;-66
2024/01/10 06:09:27;;;;;;;15.80;10.27;;;-1.50;88.50;;;0.03;60.62;103305.72;3083241;46;20446;-66
2024/01/10 06:11:56;;;;;;;19.93;12.53;;;-1.50;88.50;;;0.07;60.85;103302.19;3083076;46;20535;-66
2024/01/10 06:14:24;;;;;;;18.03;12.03;;;-1.40;88.50;;;0.08;60.33;103301.28;3083330;46;20571;-65
2024/01/10 06:16:52;;;;;;;17.00;11.80;;;-1.50;88.00;;;0.09;60.16;103295.22;3082624;46;21010;-66
2024/01/10 06:19:22;;;;;;;17.30;11.17;;;-1.40;87.90;;;0.06;59.94;103298.75;3083029;46;20450;-65
2024/01/10 06:21:52;;;;;;;18.63;10.73;;;-1.40;87.50;;;0.02;60.02;103299.72;3083030;46;20437;-66
2024/01/10 06:24:20;;;;;;;19.63;11.63;;;-1.40;87.20;;;-0.05;60.01;103306.78;3083036;46;20433;-66
2024/01/10 06:26:49;;;;;;;16.73;11.23;;;-1.50;87.10;;;-0.10;59.79;103300.94;3082599;46;20476;-66
2024/01/10 06:29:18;;;;;;;16.63;11.50;;;-1.50;87.30;;;-0.12;60.08;103309.63;3082613;46;21047;-65
2024/01/10 06:31:47;;;;;;;15.73;10.40;;;-1.60;87.20;;;-0.15;59.84;103310.56;3082806;46;20552;-66
2024/01/10 06:34:16;;;;;;;17.50;11.23;;;-1.60;87.60;;;-0.15;60.23;103312.28;3083271;46;20493;-66
2024/01/10 06:36:44;;;;;;;17.80;11.53;;;-1.60;87.80;;;-0.14;60.41;103309.66;3082726;46;20433;-66
2024/01/10 06:39:13;;;;;;;15.30;11.13;;;-1.60;88.10;;;-0.13;60.22;103303.59;3083214;46;20466;-65
2024/01/10 06:41:42;;;;;;;16.93;10.73;;;-1.60;88.60;;;-0.11;60.35;103308.72;3083175;46;20449;-66
2024/01/10 06:44:11;;;;;;;17.30;11.53;;;-1.60;88.00;;;-0.10;60.38;103300.06;3082610;46;21060;-66
2024/01/10 06:46:39;;;;;;;16.47;10.73;;;-1.60;88.20;;;-0.05;60.39;103301.63;3082572;46;20837;-66
2024/01/10 06:49:08;;;;;;;16.73;11.17;;;-1.50;88.10;;;-0.02;60.44;103304.13;3082830;46;20458;-66
2024/01/10 06:51:37;;;;;;;17.93;11.50;;;-1.50;88.10;;;-0.03;60.05;103307.63;3082443;46;21001;-64
2024/01/10 06:54:06;;;;;;;14.37;9.70;;;-1.50;87.70;;;-0.05;59.86;103317.16;3082784;46;21089;-65
2024/01/10 06:56:35;;;;;;;15.90;10.90;;;-1.50;87.20;;;-0.09;60.06;103312.97;3081457;46;21021;-66
2024/01/10 06:59:03;;;;;;;15.40;10.63;;;-1.50;87.40;;;-0.10;59.92;103313.88;3080768;46;20587;-67
2024/01/10 07:01:32;;;;;;;15.90;10.80;;;-1.50;87.60;;;-0.11;59.97;103314.75;3080473;46;21033;-62
2024/01/10 07:04:00;;;;;;;17.47;11.80;;;-1.50;87.60;;;-0.12;60.05;103320.78;3082425;46;20526;-65
2024/01/10 07:06:29;;;;;;;14.93;10.57;;;-1.60;87.50;;;-0.12;60.07;103315.63;3082120;43;21042;-62
2024/01/10 07:09:00;;;;;;;14.40;10.87;;;-1.60;87.30;;;-0.13;59.96;103310.50;3081903;46;20444;-65
2024/01/10 07:11:32;;;;;;;15.87;11.57;;;-1.60;87.20;;;-0.19;59.29;103316.69;3082067;46;20446;-66
2024/01/10 07:14:01;;;;;;;14.00;10.60;;;-1.60;87.30;;;-0.21;60.09;103312.44;3081929;46;20984;-67
2024/01/10 07:16:29;;;;;;;16.63;11.73;;;-1.60;87.50;;;-0.20;60.22;103321.91;3081258;46;21005;-66
2024/01/10 07:19:00;;;;;;;21.47;12.13;;;-1.60;87.80;;;-0.19;60.02;103316.69;3081463;46;20474;-66
2024/01/10 07:21:28;;;;;;;17.60;10.97;;;-1.60;87.50;;;-0.17;60.28;103319.25;3080051;46;21089;-64
2024/01/10 07:23:57;;;;;;;18.60;11.73;;;-1.60;87.70;;;-0.19;60.04;103321.84;3082645;46;21099;-65
2024/01/10 07:26:27;;;;;;;17.17;11.43;;;-1.70;87.50;;;-0.18;59.96;103328.75;3081850;46;20431;-66
2024/01/10 07:29:14;;;;;;;16.07;10.93;;;-1.60;87.30;;;-0.17;59.99;103324.44;3081568;46;20439;-66
2024/01/10 07:31:43;;;;;;;16.37;10.90;;;-1.70;87.60;;;-0.18;59.85;103328.75;3079999;46;20458;-64
2024/01/10 07:34:12;;;;;;;16.20;10.23;;;-1.60;87.40;;;-0.15;59.75;103330.41;3082647;43;20462;-66
2024/01/10 07:36:43;;;;;;;14.47;10.57;;;-1.60;87.50;;;-0.18;59.72;103331.34;3081288;46;20453;-68
2024/01/10 07:39:15;;;;;;;16.80;11.10;;;-1.70;87.30;;;-0.18;59.72;103335.66;3080238;46;20619;-65
2024/01/10 07:41:44;;;;;;;17.33;11.73;;;-1.70;87.30;;;-0.17;60.02;103337.34;3080537;46;20524;-63
2024/01/10 07:44:13;;;;;;;20.00;11.67;;;-1.60;87.40;;;-0.16;59.76;103345.06;3079534;46;20560;-66
2024/01/10 07:46:41;;;;;;;17.07;11.47;;;-1.70;87.10;;;-0.16;59.99;103339.91;3081349;46;21028;-66
2024/01/10 07:49:10;;;;;;;15.53;11.27;;;-1.70;87.50;;;-0.14;59.72;103345.00;3080662;46;20463;-66
2024/01/10 07:51:39;;;;;;;15.80;12.07;;;-1.60;87.50;;;-0.13;59.96;103345.00;3078593;46;20442;-66
2024/01/10 07:54:07;;;;;;;19.47;12.00;;;-1.60;87.70;;;-0.11;60.14;103345.78;3080096;46;20551;-66
2024/01/10 07:56:36;;;;;;;15.80;11.87;;;-1.60;87.90;;;-0.07;59.72;103337.06;3079764;46;20457;-66
2024/01/10 07:59:08;;;;;;;16.23;11.60;;;-1.60;87.20;;;-0.09;59.71;103345.75;3079010;44;20443;-67
2024/01/10 08:01:41;;;;;;;18.40;11.33;;;-1.60;87.30;;;-0.08;60.00;103344.88;3079277;46;20599;-68
2024/01/10 08:04:16;;;;;;;17.27;11.40;;;-1.50;87.50;;;-0.07;59.64;103337.06;3078537;46;20472;-63
2024/01/10 08:06:45;;;;;;;15.83;11.40;;;-1.50;87.30;;;-0.05;59.79;103345.63;3079164;46;20568;-66
2024/01/10 08:09:15;;;;;;;21.30;13.07;;;-1.50;87.30;;;-0.02;59.36;103350.72;3080980;43;20438;-68
2024/01/10 08:11:43;;;;;;;17.97;12.63;;;-1.50;87.30;;;0.03;59.90;103347.16;3079790;46;20450;-64
2024/01/10 08:14:12;;;;;;;16.47;11.70;;;-1.50;87.50;;;0.09;59.61;103347.00;3080564;46;20430;-65
2024/01/10 08:16:41;;;;;;;17.50;11.97;;;-1.40;87.40;;;0.12;59.69;103350.31;3081266;46;20428;-67
2024/01/10 08:19:11;;;;;;;18.00;12.70;;;-1.40;86.70;;;0.08;59.09;103346.13;3077461;46;20466;-66
2024/01/10 08:21:40;;;;;;;18.07;11.97;;;-1.40;86.50;;;0.09;59.09;103341.81;3079916;43;20450;-69
2024/01/10 08:24:08;;;;;;;18.77;11.67;;;-1.40;86.30;;;0.09;59.11;103349.56;3079089;46;21094;-67
2024/01/10 08:26:37;;;;;;;24.40;14.53;;;-1.40;86.30;;;0.09;59.17;103342.66;3077832;46;20450;-67
2024/01/10 08:29:06;;;;;;;19.70;12.23;;;-1.40;86.30;;;0.11;58.71;103340.88;3079595;46;21026;-66
2024/01/10 08:31:35;;;;;;;18.33;12.17;;;-1.40;86.10;;;0.11;58.63;103345.19;3079868;46;20521;-67
2024/01/10 08:34:12;;;;;;;20.67;14.40;;;-1.40;86.00;;;0.10;58.58;103338.31;3080290;46;20454;-67
2024/01/10 08:37:05;;;;;;;19.70;12.60;;;-1.40;85.70;;;0.13;58.99;103338.25;3076519;43;20572;-68
2024/01/10 08:39:53;;;;;;;23.20;13.50;;;-1.40;86.00;;;0.12;58.97;103339.16;3076770;46;21030;-68
2024/01/10 08:42:42;;;;;;;17.40;11.87;;;-1.40;85.80;;;0.10;58.61;103348.66;3077316;46;21094;-66
2024/01/10 08:45:25;;;;;;;18.37;11.83;;;-1.40;85.20;;;0.06;58.52;103336.72;3078422;46;20455;-65
2024/01/10 08:47:53;;;;;;;21.40;12.07;;;-1.40;84.70;;;0.02;58.36;103341.16;3078182;46;20483;-65
2024/01/10 08:50:23;;;;;;;20.23;12.63;;;-1.50;85.00;;;0.03;58.72;103348.00;3078075;43;21075;-67
2024/01/10 08:52:51;;;;;;;19.13;11.07;;;-1.50;85.80;;;0.08;58.67;103338.38;3080060;46;20545;-66
2024/01/10 08:55:20;;;;;;;21.50;12.37;;;-1.50;85.70;;;0.11;58.28;103340.03;3081218;46;20438;-66
2024/01/10 08:57:53;;;;;;;19.83;11.53;;;-1.50;85.00;;;0.07;57.97;103330.66;3079404;46;20457;-67
2024/01/10 09:00:24;;;;;;;18.23;10.83;;;-1.50;84.50;;;0.01;57.59;103329.09;3078934;46;20567;-65
2024/01/10 09:02:53;;;;;;;20.63;12.30;;;-1.50;84.30;;;-0.04;57.87;103331.81;3080008;43;20564;-66
2024/01/10 09:05:25;;;;;;;22.37;12.73;;;-1.50;84.30;;;-0.03;58.35;103340.41;3080623;46;20544;-66
2024/01/10 09:07:57;;;;;;;26.33;13.47;;;-1.60;85.20;;;-0.01;58.29;103342.06;3077693;46;20442;-65
2024/01/10 09:10:35;;;;;;;19.17;12.23;;;-1.60;85.10;;;0.05;58.31;103342.81;3079494;46;20556;-67
2024/01/10 09:13:09;;;;;;;24.30;13.93;;;-1.50;85.60;;;0.08;57.69;103342.69;3079354;46;21021;-67
2024/01/10 09:15:41;;;;;;;21.23;11.87;;;-1.50;84.90;;;0.10;57.67;103335.72;3079311;43;20442;-67
2024/01/10 09:18:14;;;;;;;21.53;12.60;;;-1.50;84.50;;;0.12;57.89;103333.97;3078799;46;20543;-68
2024/01/10 09:20:52;;;;;;;39.97;21.83;;;-1.50;84.50;;;0.09;57.23;103328.88;3077264;46;21270;-68
2024/01/10 09:23:32;;;;;;;18.67;11.40;;;-1.40;84.00;;;0.07;57.33;103325.47;3077448;46;20438;-67
2024/01/10 09:26:03;;;;;;;19.23;11.43;;;-1.50;83.90;;;0.06;57.20;103331.53;3080582;46;20449;-67
2024/01/10 09:28:31;;;;;;;26.23;15.80;;;-1.50;83.40;;;0.04;57.05;103333.31;3079844;44;20484;-63
2024/01/10 09:31:00;;;;;;;20.97;11.67;;;-1.50;83.50;;;0.07;57.47;103323.75;3078660;46;21017;-67
2024/01/10 09:33:32;;;;;;;17.90;11.67;;;-1.50;83.70;;;0.13;57.20;103320.97;3075124;46;21473;-66
2024/01/10 09:36:11;;;;;;;19.70;11.30;;;-1.50;84.10;;;0.20;57.15;103322.50;3076445;46;20488;-68
2024/01/10 09:38:40;;;;;;;20.27;12.97;;;-1.40;83.70;;;0.21;56.42;103326.78;3078720;46;20475;-67
2024/01/10 09:41:17;;;;;;;17.93;10.70;;;-1.40;83.10;;;0.25;56.53;103330.13;3078336;46;20487;-66
2024/01/10 09:43:58;;;;;;;18.00;10.60;;;-1.30;83.10;;;0.30;56.31;103333.44;3077904;46;20472;-66
2024/01/10 09:46:48;;;;;;;17.33;10.20;;;-1.30;82.60;;;0.32;56.22;103329.91;3078943;46;21042;-68
2024/01/10 09:49:22;;;;;;;18.87;11.60;;;-1.30;82.10;;;0.35;56.10;103334.16;3075327;46;20524;-66
2024/01/10 09:52:50;;;;;;;19.40;11.13;;;-1.30;82.10;;;0.37;56.12;103327.19;3079196;46;21030;-67
2024/01/10 09:55:25;;;;;;;18.15;12.82;;;-1.20;82.30;;;0.55;56.18;103321.44;3077521;46;22408;-66
2024/01/10 09:58:11;;;;;;;18.23;11.03;;;-1.20;82.30;;;0.65;55.62;103318.53;3078783;46;20588;-66
2024/01/10 10:00:42;;;;;;;20.67;11.00;;;-1.10;82.20;;;0.72;55.70;103318.34;3078575;46;21030;-66
2024/01/10 10:03:12;;;;;;;16.40;10.10;;;-1.00;82.10;;;0.81;55.29;103324.06;3079258;46;20475;-65
2024/01/10 10:05:42;;;;;;;13.80;9.60;;;-1.00;81.60;;;0.87;54.84;103318.72;3077926;43;21119;-65
2024/01/10 10:08:21;;;;;;;19.33;12.47;;;-0.90;80.60;;;0.94;54.91;103315.03;3077631;46;20668;-66
2024/01/10 10:10:51;;;;;;;15.70;10.20;;;-0.80;81.20;;;1.09;54.57;103313.69;3079375;46;20454;-64
2024/01/10 10:13:29;;;;;;;15.13;9.73;;;-0.70;80.40;;;1.58;54.54;103310.28;3079545;46;20437;-64
2024/01/10 10:16:03;;;;;;;14.30;9.67;;;-0.60;80.60;;;2.30;53.75;103320.63;3079833;46;20455;-66